Time;durP1;ratioP1;P1;durP2;ratioP2;P2;SDS_P1;SDS_P2;PMS_P1;PMS_P2;Temp;Humidity;BMP_temperature;BMP_pressure;BME280_temperature;BME280_humidity;BME280_pressure;Samples;Min_cycle;Max_cycle;Signal;HPM_P1;HPM_P2
2021/10/17 00:00:16;;;;;;;10.23;6.80;;;;;;;;;;5052742;28;20470;-65
2021/10/17 00:03:01;;;;;;;12.75;6.40;;;;;;;;;;5052565;28;20057;-65
2021/10/17 00:05:46;;;;;;;12.85;6.25;;;;;;;;;;5052117;28;20095;-65
2021/10/17 00:08:31;;;;;;;15.55;6.45;;;;;;;;;;5052416;28;20053;-65
2021/10/17 00:11:17;;;;;;;14.13;6.70;;;;;;;;;;5051001;28;20053;-65
2021/10/17 00:14:02;;;;;;;16.85;6.72;;;;;;;;;;5052568;28;20049;-65
2021/10/17 00:16:47;;;;;;;11.65;6.22;;;;;;;;;;5052155;28;20064;-65
2021/10/17 00:19:32;;;;;;;14.65;6.75;;;;;;;;;;5051381;28;20053;-66
2021/10/17 00:22:17;;;;;;;12.27;7.03;;;;;;;;;;5052096;28;20053;-65
2021/10/17 00:25:03;;;;;;;14.45;6.50;;;;;;;;;;5051977;28;20053;-66
2021/10/17 00:27:48;;;;;;;11.23;6.70;;;;;;;;;;5052409;28;20418;-65
2021/10/17 00:30:41;;;;;;;14.45;7.03;;;;;;;;;;5050880;28;20053;-66
2021/10/17 00:33:26;;;;;;;9.18;6.45;;;;;;;;;;5051120;28;20132;-65
2021/10/17 00:36:12;;;;;;;11.52;6.75;;;;;;;;;;5051804;28;20422;-65
2021/10/17 00:38:57;;;;;;;10.60;6.38;;;;;;;;;;5051984;28;20495;-66
2021/10/17 00:41:42;;;;;;;16.98;7.07;;;;;;;;;;5051805;28;20415;-65
2021/10/17 00:44:28;;;;;;;14.23;6.55;;;;;;;;;;5051886;28;20053;-65
2021/10/17 00:47:13;;;;;;;17.30;7.03;;;;;;;;;;5051758;28;20052;-66
2021/10/17 00:49:58;;;;;;;11.23;5.88;;;;;;;;;;5051167;28;20052;-65
2021/10/17 00:52:44;;;;;;;13.43;6.78;;;;;;;;;;5050969;28;20057;-65
2021/10/17 00:55:29;;;;;;;12.65;6.53;;;;;;;;;;5051660;28;20458;-65
2021/10/17 00:58:17;;;;;;;12.50;6.70;;;;;;;;;;5051477;28;20545;-65
2021/10/17 01:01:02;;;;;;;11.68;6.40;;;;;;;;;;5050690;28;20507;-65
2021/10/17 01:03:48;;;;;;;14.77;7.05;;;;;;;;;;5051311;28;20053;-66
2021/10/17 01:06:33;;;;;;;11.65;6.50;;;;;;;;;;5050593;28;20515;-65
2021/10/17 01:09:18;;;;;;;13.18;7.00;;;;;;;;;;5050546;28;20123;-66
2021/10/17 01:12:04;;;;;;;15.35;6.53;;;;;;;;;;5050940;28;20045;-66
2021/10/17 01:14:49;;;;;;;12.90;7.25;;;;;;;;;;5050439;28;20411;-65
2021/10/17 01:17:35;;;;;;;12.30;6.78;;;;;;;;;;5050564;28;20048;-65
2021/10/17 01:20:20;;;;;;;13.60;6.18;;;;;;;;;;5051415;28;20057;-65
2021/10/17 01:23:06;;;;;;;12.88;7.18;;;;;;;;;;5051017;28;20462;-66
2021/10/17 01:25:51;;;;;;;13.75;6.82;;;;;;;;;;5050416;28;20057;-65
2021/10/17 01:28:36;;;;;;;12.10;7.28;;;;;;;;;;5050421;28;20053;-65
2021/10/17 01:31:21;;;;;;;12.60;6.97;;;;;;;;;;5051154;28;20049;-65
2021/10/17 01:34:07;;;;;;;11.57;7.95;;;;;;;;;;5050142;28;20045;-66
2021/10/17 01:36:52;;;;;;;14.38;7.82;;;;;;;;;;5053893;28;20499;-66
2021/10/17 01:39:38;;;;;;;13.75;7.38;;;;;;;;;;5054173;28;20053;-65
2021/10/17 01:42:24;;;;;;;17.27;7.47;;;;;;;;;;5054208;28;20049;-65
2021/10/17 01:45:15;;;;;;;11.93;7.32;;;;;;;;;;5054004;28;20053;-65
2021/10/17 01:48:00;;;;;;;15.15;8.23;;;;;;;;;;5053742;28;20057;-65
2021/10/17 01:50:45;;;;;;;16.05;8.13;;;;;;;;;;5053878;28;20586;-65
2021/10/17 01:53:32;;;;;;;15.77;8.88;;;;;;;;;;5053593;28;20040;-66
2021/10/17 01:56:18;;;;;;;16.38;7.95;;;;;;;;;;5053978;28;20503;-65
2021/10/17 01:59:04;;;;;;;16.35;9.82;;;;;;;;;;5053665;28;20499;-65
2021/10/17 02:01:57;;;;;;;17.52;9.23;;;;;;;;;;5053925;28;20056;-65
2021/10/17 02:04:43;;;;;;;16.10;9.60;;;;;;;;;;5053298;28;20123;-67
2021/10/17 02:07:28;;;;;;;19.58;9.07;;;;;;;;;;5053770;28;20064;-65
2021/10/17 02:10:14;;;;;;;19.63;8.82;;;;;;;;;;5053529;28;20045;-65
2021/10/17 02:12:59;;;;;;;19.90;9.38;;;;;;;;;;5053595;28;20052;-65
2021/10/17 02:15:45;;;;;;;15.48;8.32;;;;;;;;;;5053360;28;20058;-67
2021/10/17 02:18:32;;;;;;;15.23;8.57;;;;;;;;;;5053339;28;20396;-65
2021/10/17 02:21:17;;;;;;;14.43;9.30;;;;;;;;;;5053292;28;20152;-66
2021/10/17 02:24:05;;;;;;;17.75;8.88;;;;;;;;;;5053290;28;20057;-65
2021/10/17 02:26:50;;;;;;;14.23;8.15;;;;;;;;;;5053339;28;20084;-65
2021/10/17 02:29:44;;;;;;;15.73;9.48;;;;;;;;;;5052972;28;20061;-66
2021/10/17 02:32:42;;;;;;;20.40;9.75;;;;;;;;;;5052748;28;20045;-65
2021/10/17 02:35:44;;;;;;;17.08;9.80;;;;;;;;;;5052633;28;20499;-65
2021/10/17 02:38:29;;;;;;;17.05;9.43;;;;;;;;;;5039437;28;20462;-65
2021/10/17 02:41:14;;;;;;;19.65;9.82;;;;;;;;;;5053015;28;20065;-65
2021/10/17 02:44:00;;;;;;;13.98;8.50;;;;;;;;;;5052803;28;20346;-65
2021/10/17 02:46:46;;;;;;;15.43;7.63;;;;;;;;;;5053719;28;20061;-65
2021/10/17 02:49:32;;;;;;;14.52;7.35;;;;;;;;;;5052984;28;20057;-67
2021/10/17 02:52:17;;;;;;;12.88;8.02;;;;;;;;;;5052727;28;20049;-66
2021/10/17 02:55:02;;;;;;;17.25;8.02;;;;;;;;;;5053014;28;20057;-65
2021/10/17 02:57:47;;;;;;;12.40;7.82;;;;;;;;;;5052903;28;20120;-65
2021/10/17 03:00:33;;;;;;;15.60;7.70;;;;;;;;;;5053745;28;20053;-65
2021/10/17 03:03:18;;;;;;;15.15;7.47;;;;;;;;;;5053626;28;20053;-66
2021/10/17 03:06:04;;;;;;;16.50;8.05;;;;;;;;;;5052729;28;20060;-65
2021/10/17 03:08:51;;;;;;;16.75;8.02;;;;;;;;;;5052500;28;20057;-65
2021/10/17 03:11:36;;;;;;;18.25;7.78;;;;;;;;;;5052719;28;20045;-65
2021/10/17 03:14:23;;;;;;;19.33;9.90;;;;;;;;;;5066713;28;20049;-65
2021/10/17 03:17:08;;;;;;;17.80;8.35;;;;;;;;;;5052237;28;20049;-66
2021/10/17 03:19:57;;;;;;;16.23;7.75;;;;;;;;;;5053410;28;20053;-65
2021/10/17 03:22:49;;;;;;;18.02;8.07;;;;;;;;;;5052568;28;20049;-65
2021/10/17 03:25:34;;;;;;;11.88;7.82;;;;;;;;;;5052029;28;20415;-65
2021/10/17 03:28:19;;;;;;;16.80;9.23;;;;;;;;;;5052389;28;20124;-65
2021/10/17 03:31:07;;;;;;;13.38;7.30;;;;;;;;;;5052293;28;20124;-65
2021/10/17 03:33:52;;;;;;;16.85;7.85;;;;;;;;;;5051966;28;20049;-65
2021/10/17 03:36:38;;;;;;;17.92;8.55;;;;;;;;;;5052995;28;20119;-65
2021/10/17 03:39:23;;;;;;;18.27;8.80;;;;;;;;;;5053206;28;20128;-65
2021/10/17 03:42:09;;;;;;;17.38;8.60;;;;;;;;;;5052886;28;20061;-65
2021/10/17 03:44:57;;;;;;;12.95;7.93;;;;;;;;;;5051772;28;20057;-65
2021/10/17 03:47:42;;;;;;;14.75;7.57;;;;;;;;;;5051693;28;20519;-65
2021/10/17 03:50:27;;;;;;;15.95;8.10;;;;;;;;;;5065869;28;20455;-67
2021/10/17 03:53:12;;;;;;;13.75;7.18;;;;;;;;;;5051869;28;20045;-65
2021/10/17 03:55:57;;;;;;;15.05;8.23;;;;;;;;;;5051478;28;20116;-66
2021/10/17 03:58:42;;;;;;;15.95;8.80;;;;;;;;;;5065389;28;20053;-65
2021/10/17 04:01:28;;;;;;;14.85;7.75;;;;;;;;;;5065860;28;20127;-66
2021/10/17 04:04:13;;;;;;;18.85;8.27;;;;;;;;;;5051397;28;20049;-65
2021/10/17 04:06:58;;;;;;;9.77;7.20;;;;;;;;;;5065697;28;20056;-65
2021/10/17 04:09:50;;;;;;;15.65;7.53;;;;;;;;;;5065813;28;20124;-66
2021/10/17 04:12:35;;;;;;;14.93;7.18;;;;;;;;;;5065904;28;20093;-65
2021/10/17 04:15:23;;;;;;;13.07;6.93;;;;;;;;;;5065511;28;20062;-67
2021/10/17 04:18:09;;;;;;;16.35;7.50;;;;;;;;;;5065507;28;20506;-65
2021/10/17 04:20:56;;;;;;;16.48;7.97;;;;;;;;;;5065538;28;20053;-65
2021/10/17 04:23:42;;;;;;;11.38;7.65;;;;;;;;;;5051040;28;20419;-66
2021/10/17 04:26:27;;;;;;;14.45;7.70;;;;;;;;;;5065295;28;20049;-65
2021/10/17 04:29:14;;;;;;;12.43;8.15;;;;;;;;;;5065570;28;20119;-66
2021/10/17 04:31:59;;;;;;;13.82;7.82;;;;;;;;;;5065235;28;20470;-65
2021/10/17 04:34:44;;;;;;;13.38;8.32;;;;;;;;;;5064895;28;20056;-66
2021/10/17 04:37:30;;;;;;;11.90;7.72;;;;;;;;;;5065407;28;20049;-65
2021/10/17 04:40:17;;;;;;;15.05;8.07;;;;;;;;;;5051369;28;20052;-65
2021/10/17 04:43:02;;;;;;;13.65;7.63;;;;;;;;;;5051274;28;20120;-66
2021/10/17 04:45:47;;;;;;;16.58;8.95;;;;;;;;;;5051957;28;20049;-65
2021/10/17 04:48:33;;;;;;;15.32;8.25;;;;;;;;;;5051966;28;20048;-65
2021/10/17 04:51:18;;;;;;;16.58;8.50;;;;;;;;;;5051733;28;20045;-65
2021/10/17 04:54:04;;;;;;;15.07;8.70;;;;;;;;;;5065106;28;20055;-65
2021/10/17 04:56:49;;;;;;;15.10;8.45;;;;;;;;;;5050617;28;20411;-66
2021/10/17 04:59:36;;;;;;;13.85;8.07;;;;;;;;;;5050967;28;20450;-65
2021/10/17 05:02:22;;;;;;;12.25;8.32;;;;;;;;;;5050990;28;20061;-65
2021/10/17 05:05:07;;;;;;;11.63;8.73;;;;;;;;;;5064704;28;20131;-65
2021/10/17 05:07:54;;;;;;;13.65;8.15;;;;;;;;;;5064944;28;20128;-65
2021/10/17 05:10:39;;;;;;;19.40;8.82;;;;;;;;;;5066770;28;20052;-66
2021/10/17 05:13:25;;;;;;;20.23;8.43;;;;;;;;;;5054688;28;20053;-68
2021/10/17 05:16:12;;;;;;;15.75;8.65;;;;;;;;;;5068825;28;20044;-65
2021/10/17 05:18:57;;;;;;;16.25;8.95;;;;;;;;;;5054654;28;20555;-65
2021/10/17 05:21:43;;;;;;;17.98;8.68;;;;;;;;;;5069331;28;20127;-65
2021/10/17 05:24:29;;;;;;;16.83;8.82;;;;;;;;;;5068500;28;20056;-65
2021/10/17 05:27:14;;;;;;;17.35;8.52;;;;;;;;;;5054589;28;20569;-65
2021/10/17 05:29:59;;;;;;;14.10;8.73;;;;;;;;;;5068839;28;20048;-65
2021/10/17 05:32:45;;;;;;;10.85;7.68;;;;;;;;;;5068179;28;20053;-65
2021/10/17 05:35:30;;;;;;;20.02;9.82;;;;;;;;;;5053386;28;20049;-65
2021/10/17 05:38:16;;;;;;;18.40;8.57;;;;;;;;;;5053837;28;20509;-65
2021/10/17 05:41:02;;;;;;;15.30;9.00;;;;;;;;;;5035215;28;20053;-65
2021/10/17 05:43:47;;;;;;;14.95;8.57;;;;;;;;;;5050174;28;20044;-65
2021/10/17 05:46:32;;;;;;;16.75;8.45;;;;;;;;;;5053744;28;20053;-65
2021/10/17 05:49:17;;;;;;;14.88;8.88;;;;;;;;;;5054832;28;20041;-65
2021/10/17 05:52:02;;;;;;;16.17;8.85;;;;;;;;;;5053991;28;20116;-65
2021/10/17 05:54:47;;;;;;;15.25;9.32;;;;;;;;;;5052576;28;20120;-65
2021/10/17 05:57:36;;;;;;;20.30;8.93;;;;;;;;;;5053919;28;20045;-65
2021/10/17 06:00:22;;;;;;;14.55;8.90;;;;;;;;;;5055104;28;20053;-65
2021/10/17 06:03:13;;;;;;;13.75;8.75;;;;;;;;;;5054135;28;20572;-65
2021/10/17 06:06:24;;;;;;;14.18;8.55;;;;;;;;;;5054947;28;20053;-65
2021/10/17 06:09:15;;;;;;;17.88;9.00;;;;;;;;;;5054078;28;20045;-65
2021/10/17 06:12:02;;;;;;;15.25;8.00;;;;;;;;;;5053675;28;20049;-65
2021/10/17 06:14:48;;;;;;;16.63;8.63;;;;;;;;;;5053628;28;20045;-65
2021/10/17 06:17:33;;;;;;;14.15;8.10;;;;;;;;;;5053585;28;20081;-65
2021/10/17 06:20:19;;;;;;;17.42;9.30;;;;;;;;;;5053899;28;20053;-65
2021/10/17 06:23:06;;;;;;;16.20;8.80;;;;;;;;;;5067624;28;20056;-66
2021/10/17 06:25:51;;;;;;;18.20;8.35;;;;;;;;;;5053381;28;20499;-65
2021/10/17 06:28:37;;;;;;;17.15;8.77;;;;;;;;;;5053371;28;20128;-65
2021/10/17 06:31:22;;;;;;;16.35;8.80;;;;;;;;;;5053253;28;20045;-65
2021/10/17 06:34:07;;;;;;;17.13;8.60;;;;;;;;;;5053397;28;20407;-65
2021/10/17 06:36:53;;;;;;;14.73;8.65;;;;;;;;;;5053597;28;20108;-65
2021/10/17 06:39:38;;;;;;;17.75;8.40;;;;;;;;;;5053081;28;20116;-65
2021/10/17 06:42:25;;;;;;;17.73;9.60;;;;;;;;;;5067568;28;20471;-65
2021/10/17 06:45:36;;;;;;;14.18;8.82;;;;;;;;;;5053817;28;20060;-65
2021/10/17 06:48:22;;;;;;;22.25;9.95;;;;;;;;;;5052892;28;20049;-65
2021/10/17 06:51:07;;;;;;;13.95;8.60;;;;;;;;;;5053200;28;20088;-65
2021/10/17 06:53:52;;;;;;;13.20;7.68;;;;;;;;;;5053680;28;20045;-65
2021/10/17 06:56:41;;;;;;;15.32;8.32;;;;;;;;;;5052949;28;20045;-66
2021/10/17 06:59:27;;;;;;;16.75;8.57;;;;;;;;;;5038272;28;20458;-66
2021/10/17 07:02:12;;;;;;;20.83;9.35;;;;;;;;;;5053594;28;20507;-66
2021/10/17 07:04:57;;;;;;;15.32;8.00;;;;;;;;;;5052619;28;20068;-67
2021/10/17 07:07:43;;;;;;;18.20;9.85;;;;;;;;;;5052881;28;20049;-66
2021/10/17 07:10:28;;;;;;;17.70;8.48;;;;;;;;;;5052810;28;20127;-65
2021/10/17 07:13:32;;;;;;;21.33;9.85;;;;;;;;;;5053404;28;20124;-66
2021/10/17 07:16:17;;;;;;;16.25;8.48;;;;;;;;;;5037959;28;20056;-67
2021/10/17 07:19:04;;;;;;;14.73;8.52;;;;;;;;;;5052365;28;20056;-66
2021/10/17 07:21:49;;;;;;;13.63;8.98;;;;;;;;;;5053812;28;20049;-66
2021/10/17 07:24:34;;;;;;;16.20;8.50;;;;;;;;;;5052375;28;20080;-66
2021/10/17 07:27:19;;;;;;;18.15;8.70;;;;;;;;;;5052203;28;20053;-66
2021/10/17 07:30:05;;;;;;;15.55;7.75;;;;;;;;;;5053215;28;20419;-66
2021/10/17 07:32:52;;;;;;;16.70;8.23;;;;;;;;;;5060784;28;20048;-65
2021/10/17 07:35:37;;;;;;;20.08;9.85;;;;;;;;;;5061560;28;20049;-66
2021/10/17 07:38:23;;;;;;;14.35;8.20;;;;;;;;;;5072859;28;20511;-66
2021/10/17 07:41:09;;;;;;;16.25;8.30;;;;;;;;;;5071925;28;20123;-66
2021/10/17 07:43:54;;;;;;;12.55;8.27;;;;;;;;;;5071785;28;20048;-65
2021/10/17 07:46:39;;;;;;;14.20;8.52;;;;;;;;;;5052600;28;20053;-65
2021/10/17 07:49:28;;;;;;;18.52;8.00;;;;;;;;;;5052237;28;20045;-66
2021/10/17 07:52:15;;;;;;;17.30;8.40;;;;;;;;;;5051783;28;20049;-66
2021/10/17 07:55:00;;;;;;;17.92;8.55;;;;;;;;;;5050207;28;20076;-66
2021/10/17 07:58:03;;;;;;;14.60;8.48;;;;;;;;;;5048842;28;20083;-66
2021/10/17 08:01:04;;;;;;;19.48;8.52;;;;;;;;;;5049246;28;20128;-65
2021/10/17 08:03:55;;;;;;;16.48;7.93;;;;;;;;;;5049433;28;20049;-66
2021/10/17 08:06:49;;;;;;;19.70;9.48;;;;;;;;;;5048916;28;20045;-66
2021/10/17 08:09:35;;;;;;;17.98;8.35;;;;;;;;;;5049298;28;20041;-66
2021/10/17 08:12:22;;;;;;;14.90;7.53;;;;;;;;;;5047624;28;20159;-66
2021/10/17 08:15:08;;;;;;;16.65;7.72;;;;;;;;;;5062469;28;20562;-66
2021/10/17 08:17:56;;;;;;;19.15;8.32;;;;;;;;;;5049086;28;20064;-66
2021/10/17 08:20:49;;;;;;;14.23;7.78;;;;;;;;;;5049794;28;20128;-66
2021/10/17 08:23:35;;;;;;;19.85;8.52;;;;;;;;;;5048929;28;20049;-66
2021/10/17 08:26:20;;;;;;;15.55;8.27;;;;;;;;;;5049155;28;20507;-68
2021/10/17 08:29:06;;;;;;;17.73;8.73;;;;;;;;;;5048631;28;20120;-67
2021/10/17 08:31:51;;;;;;;16.75;8.50;;;;;;;;;;5043168;28;20049;-68
2021/10/17 08:34:36;;;;;;;12.45;7.30;;;;;;;;;;5029264;28;20049;-67
2021/10/17 08:37:21;;;;;;;21.77;9.07;;;;;;;;;;5029392;28;20404;-66
2021/10/17 08:40:29;;;;;;;20.33;9.18;;;;;;;;;;5029032;28;20124;-66
2021/10/17 08:43:37;;;;;;;18.13;8.55;;;;;;;;;;5028668;28;20057;-67
2021/10/17 08:46:28;;;;;;;13.70;8.07;;;;;;;;;;5024335;28;20053;-65
2021/10/17 08:49:24;;;;;;;15.98;8.00;;;;;;;;;;5028843;28;20057;-66
2021/10/17 08:52:10;;;;;;;18.45;8.60;;;;;;;;;;5029844;28;20046;-66
2021/10/17 08:54:56;;;;;;;15.43;8.15;;;;;;;;;;5028102;28;20046;-65
2021/10/17 08:57:42;;;;;;;17.30;9.35;;;;;;;;;;5030151;28;20045;-65
2021/10/17 09:00:35;;;;;;;14.20;7.25;;;;;;;;;;5040666;28;20053;-66
2021/10/17 09:03:35;;;;;;;17.58;9.05;;;;;;;;;;5062798;28;20078;-65
2021/10/17 09:06:27;;;;;;;18.92;8.40;;;;;;;;;;5049029;28;20053;-65
2021/10/17 09:09:21;;;;;;;16.05;7.78;;;;;;;;;;5062273;28;20052;-65
2021/10/17 09:12:23;;;;;;;12.90;8.40;;;;;;;;;;5048273;28;20056;-65
2021/10/17 09:15:26;;;;;;;18.45;8.55;;;;;;;;;;5049033;28;20052;-65
2021/10/17 09:18:19;;;;;;;14.70;8.27;;;;;;;;;;5048954;28;20049;-66
2021/10/17 09:21:08;;;;;;;13.02;7.57;;;;;;;;;;5049222;28;20091;-66
2021/10/17 09:23:54;;;;;;;12.73;8.35;;;;;;;;;;5049217;28;20061;-66
2021/10/17 09:26:39;;;;;;;16.02;8.70;;;;;;;;;;5049624;28;20531;-66
2021/10/17 09:29:31;;;;;;;12.35;7.70;;;;;;;;;;5049581;28;20091;-66
2021/10/17 09:32:17;;;;;;;18.00;8.73;;;;;;;;;;5048701;28;20045;-65
2021/10/17 09:35:04;;;;;;;12.68;8.27;;;;;;;;;;5048479;28;20508;-67
2021/10/17 09:38:01;;;;;;;15.95;8.07;;;;;;;;;;5047964;28;20053;-65
2021/10/17 09:41:02;;;;;;;;;;;;;;;;;;5048974;28;20083;-65
2021/10/17 09:43:57;;;;;;;14.02;7.97;;;;;;;;;;5048520;28;20394;-66
2021/10/17 09:46:55;;;;;;;15.27;8.45;;;;;;;;;;5047496;28;20411;-69
2021/10/17 09:49:41;;;;;;;11.73;7.97;;;;;;;;;;5049616;28;20053;-66
2021/10/17 09:52:27;;;;;;;13.77;7.72;;;;;;;;;;5049442;28;20045;-65
2021/10/17 09:55:12;;;;;;;13.40;7.15;;;;;;;;;;5048242;28;20045;-65
2021/10/17 09:57:58;;;;;;;14.88;7.40;;;;;;;;;;5052503;28;20053;-65
2021/10/17 10:00:44;;;;;;;14.05;8.60;;;;;;;;;;5052852;28;20116;-65
2021/10/17 10:03:29;;;;;;;12.65;7.13;;;;;;;;;;5051506;28;20650;-65
2021/10/17 10:06:14;;;;;;;15.20;7.43;;;;;;;;;;5048144;28;20049;-66
2021/10/17 10:09:02;;;;;;;17.75;7.45;;;;;;;;;;5045754;28;20132;-67
2021/10/17 10:11:48;;;;;;;13.45;8.07;;;;;;;;;;5032804;28;20050;-67
2021/10/17 10:14:33;;;;;;;14.82;7.63;;;;;;;;;;5045607;28;20057;-65
2021/10/17 10:17:18;;;;;;;14.60;8.02;;;;;;;;;;5032222;28;20049;-65
2021/10/17 10:20:04;;;;;;;14.38;7.97;;;;;;;;;;5032140;28;20049;-67
2021/10/17 10:22:50;;;;;;;14.18;7.38;;;;;;;;;;5032690;28;20128;-65
2021/10/17 10:25:35;;;;;;;13.35;7.97;;;;;;;;;;5045349;28;20061;-65
2021/10/17 10:28:22;;;;;;;15.13;7.57;;;;;;;;;;5046036;28;20080;-65
2021/10/17 10:31:07;;;;;;;15.50;8.60;;;;;;;;;;5047527;28;20053;-64
2021/10/17 10:33:52;;;;;;;11.88;6.68;;;;;;;;;;5051223;28;20116;-65
2021/10/17 10:36:39;;;;;;;16.70;7.53;;;;;;;;;;5048186;28;20041;-65
2021/10/17 10:39:32;;;;;;;16.48;7.28;;;;;;;;;;5049897;28;20052;-66
2021/10/17 10:42:17;;;;;;;13.95;7.38;;;;;;;;;;5031841;28;20049;-65
2021/10/17 10:45:22;;;;;;;15.30;6.72;;;;;;;;;;5026577;28;20093;-65
2021/10/17 10:48:13;;;;;;;13.50;8.13;;;;;;;;;;5031743;28;20132;-65
2021/10/17 10:50:59;;;;;;;14.82;6.85;;;;;;;;;;5031247;28;20049;-67
2021/10/17 10:53:47;;;;;;;15.63;7.13;;;;;;;;;;5031823;28;20049;-65
2021/10/17 10:56:40;;;;;;;10.07;6.72;;;;;;;;;;5031650;28;20049;-67
2021/10/17 10:59:29;;;;;;;12.80;7.00;;;;;;;;;;5034493;28;20085;-67
2021/10/17 11:02:18;;;;;;;11.27;6.78;;;;;;;;;;5050136;28;20780;-65
2021/10/17 11:05:04;;;;;;;10.50;7.32;;;;;;;;;;5050801;28;20057;-67
2021/10/17 11:07:49;;;;;;;12.85;6.95;;;;;;;;;;5050378;28;20060;-66
2021/10/17 11:10:36;;;;;;;9.32;5.45;;;;;;;;;;5051508;28;20057;-65
2021/10/17 11:13:41;;;;;;;11.55;6.82;;;;;;;;;;5051457;28;20423;-66
2021/10/17 11:16:26;;;;;;;11.75;7.32;;;;;;;;;;5051194;28;20041;-65
2021/10/17 11:19:12;;;;;;;11.25;5.75;;;;;;;;;;5050798;28;20049;-65
2021/10/17 11:22:02;;;;;;;11.07;5.85;;;;;;;;;;5050692;28;20127;-66
2021/10/17 11:24:51;;;;;;;10.82;5.95;;;;;;;;;;5051289;28;20061;-66
2021/10/17 11:27:36;;;;;;;11.63;6.40;;;;;;;;;;5051474;28;20053;-66
2021/10/17 11:30:35;;;;;;;12.45;6.07;;;;;;;;;;5051262;28;20435;-65
2021/10/17 11:33:20;;;;;;;9.43;5.60;;;;;;;;;;5051009;28;20049;-65
2021/10/17 11:36:06;;;;;;;9.95;5.70;;;;;;;;;;5050426;28;20049;-65
2021/10/17 11:38:55;;;;;;;11.65;5.88;;;;;;;;;;5051147;28;20049;-66
2021/10/17 11:41:40;;;;;;;11.60;5.75;;;;;;;;;;5051137;28;20041;-66
2021/10/17 11:44:25;;;;;;;8.20;5.30;;;;;;;;;;5050880;28;20419;-65
2021/10/17 11:47:10;;;;;;;8.18;5.30;;;;;;;;;;5049825;28;20049;-65
2021/10/17 11:50:00;;;;;;;11.30;5.30;;;;;;;;;;5050316;28;20057;-65
2021/10/17 11:52:49;;;;;;;13.65;5.57;;;;;;;;;;5050809;28;20049;-66
2021/10/17 11:55:46;;;;;;;9.27;4.90;;;;;;;;;;5050445;28;20411;-65
2021/10/17 11:58:32;;;;;;;7.18;4.35;;;;;;;;;;5049575;28;20049;-65
2021/10/17 12:01:19;;;;;;;8.45;5.00;;;;;;;;;;5049833;28;20471;-66
2021/10/17 12:04:04;;;;;;;9.13;5.00;;;;;;;;;;5052295;28;20049;-66
2021/10/17 12:06:51;;;;;;;7.75;4.30;;;;;;;;;;5052296;28;20388;-66
2021/10/17 12:09:37;;;;;;;11.70;4.97;;;;;;;;;;5052763;28;20053;-65
2021/10/17 12:12:25;;;;;;;8.30;4.75;;;;;;;;;;5051465;28;20057;-66
2021/10/17 12:15:12;;;;;;;9.35;5.32;;;;;;;;;;5052321;28;20091;-66
2021/10/17 12:18:03;;;;;;;10.88;4.50;;;;;;;;;;5052268;28;20518;-66
2021/10/17 12:20:48;;;;;;;8.55;5.72;;;;;;;;;;5052097;28;20056;-66
2021/10/17 12:23:33;;;;;;;11.60;5.32;;;;;;;;;;5051245;28;20053;-66
2021/10/17 12:26:37;;;;;;;7.90;4.55;;;;;;;;;;5051267;28;20069;-65
2021/10/17 12:29:25;;;;;;;10.57;5.07;;;;;;;;;;5051862;28;20049;-66
2021/10/17 12:32:10;;;;;;;8.65;4.60;;;;;;;;;;5052246;28;20048;-66
2021/10/17 12:34:56;;;;;;;12.05;4.85;;;;;;;;;;5051835;28;20057;-66
2021/10/17 12:37:41;;;;;;;9.70;5.30;;;;;;;;;;5052034;28;20057;-66
2021/10/17 12:40:26;;;;;;;7.15;4.00;;;;;;;;;;5052112;28;20084;-65
2021/10/17 12:43:11;;;;;;;13.70;5.75;;;;;;;;;;5051019;28;20057;-66
2021/10/17 12:45:57;;;;;;;12.73;5.00;;;;;;;;;;5050950;28;20123;-66
2021/10/17 12:48:43;;;;;;;8.95;5.20;;;;;;;;;;5052021;28;20052;-66
2021/10/17 12:51:37;;;;;;;8.65;4.78;;;;;;;;;;5051957;28;20057;-66
2021/10/17 12:54:22;;;;;;;10.13;4.68;;;;;;;;;;5051552;28;20523;-66
2021/10/17 12:57:08;;;;;;;13.02;5.63;;;;;;;;;;5052115;28;20052;-66
2021/10/17 12:59:54;;;;;;;8.68;4.50;;;;;;;;;;5052032;28;20432;-65
2021/10/17 13:02:39;;;;;;;8.40;4.30;;;;;;;;;;5046763;28;20048;-66
2021/10/17 13:05:25;;;;;;;8.27;5.18;;;;;;;;;;5046405;28;20124;-65
2021/10/17 13:08:11;;;;;;;8.68;4.55;;;;;;;;;;5051696;28;20120;-66
2021/10/17 13:11:11;;;;;;;8.50;4.78;;;;;;;;;;5050707;28;20053;-66
2021/10/17 13:13:56;;;;;;;12.50;5.78;;;;;;;;;;5051425;28;20392;-66
2021/10/17 13:16:42;;;;;;;11.77;5.88;;;;;;;;;;5051477;28;20045;-66
2021/10/17 13:19:28;;;;;;;9.63;4.82;;;;;;;;;;5051385;28;20045;-66
2021/10/17 13:22:13;;;;;;;8.93;4.78;;;;;;;;;;5051807;28;20052;-66
2021/10/17 13:24:59;;;;;;;9.55;4.90;;;;;;;;;;5051028;28;20049;-66
2021/10/17 13:27:47;;;;;;;11.45;4.60;;;;;;;;;;5049414;28;20053;-66
2021/10/17 13:30:32;;;;;;;10.85;5.25;;;;;;;;;;5051682;28;20124;-66
2021/10/17 13:33:18;;;;;;;8.23;5.00;;;;;;;;;;5096590;22;20124;-67
2021/10/17 13:36:04;;;;;;;10.65;5.20;;;;;;;;;;5094508;28;20052;-66
2021/10/17 13:38:49;;;;;;;9.00;4.63;;;;;;;;;;5095341;28;20505;-67
2021/10/17 13:41:34;;;;;;;10.32;4.85;;;;;;;;;;5077357;28;20063;-68
2021/10/17 13:44:19;;;;;;;10.20;4.90;;;;;;;;;;5085240;28;20564;-68
2021/10/17 13:47:05;;;;;;;10.48;4.93;;;;;;;;;;5075306;28;20052;-67
2021/10/17 13:49:50;;;;;;;9.65;4.75;;;;;;;;;;5043113;28;20058;-67
2021/10/17 13:52:35;;;;;;;10.13;5.18;;;;;;;;;;5054915;28;20049;-66
2021/10/17 13:55:20;;;;;;;10.68;4.88;;;;;;;;;;5055010;28;20048;-65
2021/10/17 13:58:06;;;;;;;20.15;6.30;;;;;;;;;;5055038;28;20057;-67
2021/10/17 14:00:51;;;;;;;14.38;5.35;;;;;;;;;;5055039;28;20388;-66
2021/10/17 14:03:36;;;;;;;13.52;5.15;;;;;;;;;;5021542;28;20131;-68
2021/10/17 14:06:21;;;;;;;11.27;5.07;;;;;;;;;;5054625;28;20438;-66
2021/10/17 14:09:06;;;;;;;8.48;4.60;;;;;;;;;;5036891;28;20131;-68
2021/10/17 14:11:51;;;;;;;10.20;4.57;;;;;;;;;;5036878;28;20503;-67
2021/10/17 14:14:37;;;;;;;10.80;4.32;;;;;;;;;;5025608;28;20082;-67
2021/10/17 14:17:22;;;;;;;10.77;5.00;;;;;;;;;;5022908;28;20061;-67
2021/10/17 14:20:08;;;;;;;12.27;5.05;;;;;;;;;;5036755;28;20459;-67
2021/10/17 14:22:53;;;;;;;7.13;4.47;;;;;;;;;;5054679;28;20053;-67
2021/10/17 14:25:38;;;;;;;8.52;4.13;;;;;;;;;;5036434;28;20056;-66
2021/10/17 14:28:23;;;;;;;9.52;4.45;;;;;;;;;;5054585;28;20049;-66
2021/10/17 14:31:09;;;;;;;7.53;4.55;;;;;;;;;;5036533;28;20049;-66
2021/10/17 14:33:54;;;;;;;10.15;4.85;;;;;;;;;;5053694;28;20053;-66
2021/10/17 14:36:39;;;;;;;9.27;4.07;;;;;;;;;;5054121;28;20049;-66
2021/10/17 14:39:25;;;;;;;8.25;4.53;;;;;;;;;;5054189;28;20045;-66
2021/10/17 14:42:10;;;;;;;14.57;4.47;;;;;;;;;;5053962;28;20045;-66
2021/10/17 14:44:55;;;;;;;9.82;4.60;;;;;;;;;;5053576;28;20049;-67
2021/10/17 14:47:41;;;;;;;9.85;4.75;;;;;;;;;;5054196;28;20462;-66
2021/10/17 14:50:26;;;;;;;7.18;4.82;;;;;;;;;;5065167;28;20048;-66
2021/10/17 14:53:12;;;;;;;6.95;4.53;;;;;;;;;;5073359;28;20048;-66
2021/10/17 14:55:57;;;;;;;9.73;4.90;;;;;;;;;;5072689;28;20049;-66
2021/10/17 14:58:42;;;;;;;8.77;4.30;;;;;;;;;;5073775;28;20048;-67
2021/10/17 15:01:27;;;;;;;10.43;4.63;;;;;;;;;;5055602;28;20084;-67
2021/10/17 15:04:12;;;;;;;8.07;4.68;;;;;;;;;;5073279;28;20126;-66
2021/10/17 15:07:01;;;;;;;8.15;3.85;;;;;;;;;;5073685;28;20060;-66
2021/10/17 15:09:46;;;;;;;7.18;4.22;;;;;;;;;;5073581;28;20053;-67
2021/10/17 15:12:32;;;;;;;8.00;4.38;;;;;;;;;;5055568;28;20049;-66
2021/10/17 15:15:17;;;;;;;10.40;4.55;;;;;;;;;;5073235;28;20053;-67
2021/10/17 15:18:03;;;;;;;7.18;3.65;;;;;;;;;;5055944;28;20626;-66
2021/10/17 15:20:51;;;;;;;11.85;4.13;;;;;;;;;;5055469;28;20056;-66
2021/10/17 15:23:37;;;;;;;7.53;3.78;;;;;;;;;;5090709;28;20060;-66
2021/10/17 15:26:22;;;;;;;9.20;4.07;;;;;;;;;;5075212;28;20064;-66
2021/10/17 15:29:07;;;;;;;12.63;4.07;;;;;;;;;;5075186;28;20060;-66
2021/10/17 15:31:52;;;;;;;7.75;3.78;;;;;;;;;;5093403;28;20048;-66
2021/10/17 15:34:38;;;;;;;7.97;3.63;;;;;;;;;;5092672;28;20518;-66
2021/10/17 15:37:23;;;;;;;7.72;3.83;;;;;;;;;;5093440;28;20052;-67
2021/10/17 15:40:08;;;;;;;8.73;3.85;;;;;;;;;;5093289;28;20048;-66
2021/10/17 15:42:55;;;;;;;8.02;4.25;;;;;;;;;;5077985;28;20082;-66
2021/10/17 15:45:40;;;;;;;6.65;3.67;;;;;;;;;;5074649;28;20056;-66
2021/10/17 15:48:25;;;;;;;6.20;3.28;;;;;;;;;;5093025;28;20055;-66
2021/10/17 15:51:10;;;;;;;9.90;3.80;;;;;;;;;;5083880;28;20044;-66
2021/10/17 15:53:57;;;;;;;5.68;3.42;;;;;;;;;;5030847;28;20041;-66
2021/10/17 15:56:42;;;;;;;5.35;3.08;;;;;;;;;;5032674;28;20124;-66
2021/10/17 15:59:28;;;;;;;7.05;3.55;;;;;;;;;;5032633;28;20053;-66
2021/10/17 16:02:13;;;;;;;6.63;3.65;;;;;;;;;;5032523;28;20056;-66
2021/10/17 16:04:59;;;;;;;4.97;3.90;;;;;;;;;;5032206;28;20435;-67
2021/10/17 16:07:44;;;;;;;8.50;3.38;;;;;;;;;;5031408;28;20049;-66
2021/10/17 16:10:29;;;;;;;6.28;3.50;;;;;;;;;;5030398;28;20049;-67
2021/10/17 16:13:14;;;;;;;5.68;2.90;;;;;;;;;;5045476;28;20452;-66
2021/10/17 16:15:59;;;;;;;11.70;4.20;;;;;;;;;;5042569;28;20531;-65
2021/10/17 16:18:44;;;;;;;4.85;3.05;;;;;;;;;;5044506;28;20053;-65
2021/10/17 16:21:29;;;;;;;7.20;3.65;;;;;;;;;;5045914;28;20061;-66
2021/10/17 16:24:15;;;;;;;5.70;3.55;;;;;;;;;;5027620;28;20049;-67
2021/10/17 16:27:00;;;;;;;5.75;3.30;;;;;;;;;;5044996;28;20059;-66
2021/10/17 16:29:45;;;;;;;13.40;3.85;;;;;;;;;;5030170;28;20053;-67